Terminal Aerodrome Forecast
Issued by NWS

Home | Current Version | Previous Version | Graphics & Text | Print | Product List | Glossary Off
Versions: 1 2 3 4 5 6 7 8 9 10 11 12 13 14 15 16 17

397
FTUS43 KICT 241736
TAFRSL
TAF
KRSL 241736Z 2418/2518 07008KT P6SM FEW050 SCT120
     FM250400 06009KT P6SM VCTS SCT040CB BKN080
     FM250800 05007KT P6SM BKN150=

USA.gov is the U.S. government's official web portal to all federal, state and local government web resources and services.